Aquasco, Maryland
Current Conditions -  °F | °C
As of 7:58 PM on Tuesday 25 Nov 2014 (Local Time) from KADW Reporting Station
Few Clouds Few Clouds  
Wind Chill:   Ceiling: Unl
Heat Index:   Visibility: 10mi
Dew Point:   Wind: 0mph
Humidity: 62%   Direction: NA
Pressure: 30.12"   Gusts: NA
Location:  38.58°N, 76.73°W
Report Text: KADW 260058Z AUTO 00000KT 10SM FEW190 08/01 A3012 RMK AO2 SLP207 T00830014 $
Loading
Personal Weather Stations






























Interactive Weather Map New forecast layout! Learn more

10-Day Weather Forecast

Advertisements
Track Severe Weather on mobile